CBR9 weather

Public forecast

Using degrees Celsius for public forecast. Weather courtesy of forecast.io.

Closest aviation weather report (METAR) to Anchor 9 Ranch Airport

Closest report is Calgary / Springbank Airport, 20.1 nm (37.3 km) SSE. Retrieved 2020/08/15 10:00 UTC (28 minutes ago):

CYBW 151000Z AUTO 31004KT 9SM OVC080 09/06 A3007 RMK SLP190

Closest aviation forecast (TAF) to Anchor 9 Ranch Airport

Forecast is more than 6 hours old.

Closest forecast is Calgary / Springbank Airport, 20.1 nm (37.3 km) SSE. Retrieved 2020-08-15 00:00 UTC (10 hours ago):

TAF CYBW 142338Z 1500/1504 28018G28KT P6SM FEW080 BKN240 BECMG 1502/1504 28008KT RMK FCST BASED ON AUTO OBS NXT FCST WILL BE ISSUED AT 151145Z